Terminal Aerodrome Forecast
Issued by NWS Hastings, NE

Home | Current Version | Previous Version | Text Only | Print | Product List | Glossary On
Versions: 1 2 3 4 5 6 7 8 9 10 11 12 13 14 15 16 17 18 19 20 21 22 23 24 25 26 27 28 29 30 31 32 33
000
FTUS43 KGID 231512 AAE
TAFGRI
TAF AMD
KGRI 231512Z 2315/2412 14009KT P6SM BKN010 OVC016
     FM231600 16014G20KT P6SM BKN040
     FM240100 16012KT P6SM VCTS BKN040CB
     FM240500 18012KT P6SM BKN120=

USA.gov is the U.S. government's official web portal to all federal, state and local government web resources and services.